Terminal Aerodrome Forecast
Issued by NWS

Home | Current Version | Previous Version | Text Only | Print | Product List | Glossary Off
Versions: 1 2 3 4 5 6 7 8 9 10 11 12 13 14

000
FTUS43 KICT 250527
TAFCNU
TAF
KCNU 250527Z 2506/2606 25011KT P6SM BKN050 BKN100
     FM250900 28015KT P6SM BKN050
     FM251500 32024G34KT P6SM OVC040
     FM252300 34014KT P6SM SCT050 BKN100
     FM260300 34008KT P6SM SCT250=

USA.gov is the U.S. government's official web portal to all federal, state and local government web resources and services.